createdAt,value
2022-07-29T00:01:43.130Z,12.05
2022-07-29T00:04:11.049Z,11.65
2022-07-29T00:06:39.155Z,10.05
2022-07-29T00:09:07.176Z,14.00
2022-07-29T00:11:34.790Z,11.27
2022-07-29T00:14:02.429Z,13.60
2022-07-29T00:16:30.089Z,11.52
2022-07-29T00:19:02.022Z,10.07
2022-07-29T00:21:30.231Z,12.02
2022-07-29T00:23:57.828Z,11.03
2022-07-29T00:26:25.430Z,11.80
2022-07-29T00:29:02.074Z,13.77
2022-07-29T00:31:40.551Z,11.98
2022-07-29T00:34:28.000Z,10.52
2022-07-29T00:36:55.557Z,11.43
2022-07-29T00:39:23.320Z,16.25
2022-07-29T00:41:51.743Z,13.52
2022-07-29T00:44:19.284Z,13.25
2022-07-29T00:46:46.829Z,13.32
2022-07-29T00:49:14.607Z,15.80
2022-07-29T00:51:42.315Z,10.93
2022-07-29T00:54:09.885Z,15.32
2022-07-29T00:56:37.797Z,12.85
2022-07-29T00:59:05.264Z,11.65
2022-07-29T01:01:32.844Z,13.07
2022-07-29T01:04:00.491Z,14.25
2022-07-29T01:06:28.352Z,12.52
2022-07-29T01:08:56.539Z,12.15
2022-07-29T01:11:24.443Z,12.60
2022-07-29T01:13:53.123Z,13.77
2022-07-29T01:16:33.162Z,12.52
2022-07-29T01:19:46.875Z,14.07
2022-07-29T01:22:17.370Z,11.57
2022-07-29T01:25:10.895Z,15.05
2022-07-29T01:27:56.650Z,13.07
2022-07-29T01:30:27.043Z,13.25
2022-07-29T01:33:04.445Z,13.35
2022-07-29T01:35:41.296Z,12.52
2022-07-29T01:38:13.868Z,13.63
2022-07-29T01:41:09.753Z,13.03
2022-07-29T01:43:44.162Z,15.50
2022-07-29T01:46:19.046Z,14.80
2022-07-29T01:48:56.393Z,16.33
2022-07-29T01:51:34.457Z,15.98
2022-07-29T01:54:14.251Z,13.03
2022-07-29T01:56:45.004Z,14.30
2022-07-29T01:59:13.762Z,14.05
2022-07-29T02:01:44.201Z,13.10
2022-07-29T02:04:13.845Z,15.02
2022-07-29T02:07:01.877Z,14.63
2022-07-29T02:09:31.113Z,13.43
2022-07-29T02:12:00.699Z,16.48
2022-07-29T02:14:33.570Z,13.15
2022-07-29T02:17:03.289Z,14.82
2022-07-29T02:19:33.570Z,13.53
2022-07-29T02:22:03.330Z,16.73
2022-07-29T02:24:32.450Z,11.65
2022-07-29T02:27:02.182Z,16.30
2022-07-29T02:29:33.793Z,14.32
2022-07-29T02:32:02.528Z,10.13
2022-07-29T02:34:31.546Z,12.63
2022-07-29T02:37:00.398Z,9.50
2022-07-29T02:39:30.163Z,11.10
2022-07-29T02:42:04.324Z,12.45
2022-07-29T02:44:34.821Z,13.37
2022-07-29T02:47:17.273Z,11.85
2022-07-29T02:49:55.276Z,10.90
2022-07-29T02:52:45.048Z,9.50
2022-07-29T02:55:24.221Z,11.35
2022-07-29T02:57:55.778Z,12.00
2022-07-29T03:00:28.682Z,10.15
2022-07-29T03:02:59.920Z,10.85
2022-07-29T03:05:28.262Z,11.98
2022-07-29T03:08:08.329Z,11.93
2022-07-29T03:10:38.636Z,14.60
2022-07-29T03:13:07.310Z,16.45
2022-07-29T03:15:35.470Z,11.75
2022-07-29T03:18:04.021Z,12.77
2022-07-29T03:20:31.709Z,12.80
2022-07-29T03:22:59.332Z,12.63
2022-07-29T03:25:28.385Z,18.70
2022-07-29T03:27:55.928Z,14.52
2022-07-29T03:30:24.429Z,13.25
2022-07-29T03:32:53.190Z,14.40
2022-07-29T03:35:21.912Z,13.20
2022-07-29T03:37:50.141Z,11.63
2022-07-29T03:40:48.050Z,10.75
2022-07-29T03:43:18.395Z,9.20
2022-07-29T03:45:50.921Z,8.85
2022-07-29T03:48:22.155Z,8.60
2022-07-29T03:50:51.851Z,8.70
2022-07-29T03:53:19.725Z,14.13
2022-07-29T03:55:52.357Z,10.55
2022-07-29T03:58:20.876Z,8.20
2022-07-29T04:00:48.928Z,8.90
2022-07-29T04:03:17.296Z,9.73
2022-07-29T04:05:44.921Z,6.95
2022-07-29T04:08:12.476Z,9.23
2022-07-29T04:10:40.137Z,7.35
2022-07-29T04:13:07.680Z,8.67
2022-07-29T04:15:35.256Z,6.68
2022-07-29T04:18:02.792Z,9.10
2022-07-29T04:20:30.531Z,7.45
2022-07-29T04:22:58.127Z,8.35
2022-07-29T04:25:25.702Z,7.90
2022-07-29T04:28:02.147Z,10.10
2022-07-29T04:30:33.125Z,10.07
2022-07-29T04:33:04.992Z,9.05
2022-07-29T04:35:36.772Z,8.35
2022-07-29T04:38:07.335Z,7.93
2022-07-29T04:40:43.068Z,7.85
2022-07-29T04:43:10.569Z,8.90
2022-07-29T04:45:40.101Z,9.02
2022-07-29T04:48:07.985Z,6.53
2022-07-29T04:50:35.559Z,5.83
2022-07-29T04:53:03.196Z,8.05
2022-07-29T04:55:30.740Z,8.95
2022-07-29T04:57:58.533Z,7.57
2022-07-29T05:00:32.131Z,7.28
2022-07-29T05:03:01.556Z,6.67
2022-07-29T05:05:29.263Z,7.18
2022-07-29T05:07:56.977Z,7.55
2022-07-29T05:10:24.709Z,8.80
2022-07-29T05:12:52.315Z,7.35
2022-07-29T05:15:20.026Z,6.30
2022-07-29T05:17:47.560Z,7.65
2022-07-29T05:20:15.119Z,10.35
2022-07-29T05:22:42.624Z,10.45
2022-07-29T05:25:10.884Z,9.00
2022-07-29T05:27:38.397Z,7.03
2022-07-29T05:30:06.433Z,5.88
2022-07-29T05:32:33.920Z,10.02
2022-07-29T05:35:01.500Z,11.05
2022-07-29T05:37:29.307Z,9.77
2022-07-29T05:39:57.487Z,8.20
2022-07-29T05:42:27.112Z,8.05
2022-07-29T05:44:54.865Z,8.68
2022-07-29T05:47:23.851Z,8.63
2022-07-29T05:49:52.148Z,5.65
2022-07-29T05:52:20.148Z,6.57
2022-07-29T05:54:48.187Z,5.55
2022-07-29T05:57:20.588Z,5.85
2022-07-29T05:59:48.544Z,7.28
2022-07-29T06:02:17.522Z,6.40
2022-07-29T06:04:45.509Z,8.07
2022-07-29T06:07:13.030Z,6.43
2022-07-29T06:09:40.725Z,5.15
2022-07-29T06:12:08.391Z,6.32
2022-07-29T06:14:36.929Z,5.55
2022-07-29T06:17:04.869Z,6.20
2022-07-29T06:19:32.430Z,8.15
2022-07-29T06:22:00.107Z,5.70
2022-07-29T06:24:28.369Z,6.45
2022-07-29T06:26:56.731Z,8.10
2022-07-29T06:29:24.781Z,6.40
2022-07-29T06:31:52.671Z,8.90
2022-07-29T06:34:20.684Z,7.32
2022-07-29T06:36:48.533Z,6.78
2022-07-29T06:39:17.076Z,7.68
2022-07-29T06:41:51.680Z,5.60
2022-07-29T06:44:21.967Z,5.18
2022-07-29T06:46:51.369Z,7.63
2022-07-29T06:49:18.983Z,5.72
2022-07-29T06:51:46.553Z,5.00
2022-07-29T06:54:14.104Z,5.50
2022-07-29T06:56:42.986Z,5.53
2022-07-29T06:59:12.144Z,7.60
2022-07-29T07:01:42.216Z,5.22
2022-07-29T07:04:10.560Z,6.80
2022-07-29T07:06:39.071Z,7.17
2022-07-29T07:09:07.243Z,12.05
2022-07-29T07:11:35.149Z,5.25
2022-07-29T07:14:04.464Z,5.30
2022-07-29T07:16:33.427Z,6.07
2022-07-29T07:19:01.734Z,6.80
2022-07-29T07:21:30.258Z,7.07
2022-07-29T07:23:58.666Z,5.57
2022-07-29T07:26:26.593Z,4.90
2022-07-29T07:28:54.185Z,5.20
2022-07-29T07:31:21.858Z,5.23
2022-07-29T07:33:49.403Z,5.70
2022-07-29T07:36:16.974Z,5.78
2022-07-29T07:38:44.544Z,6.22
2022-07-29T07:41:12.209Z,6.20
2022-07-29T07:43:39.717Z,4.60
2022-07-29T07:46:07.422Z,6.03
2022-07-29T07:48:36.100Z,6.50
2022-07-29T07:51:29.274Z,6.20
2022-07-29T07:53:56.974Z,5.93
2022-07-29T07:56:25.270Z,5.43
2022-07-29T07:58:52.805Z,4.80
2022-07-29T08:01:24.023Z,6.82
2022-07-29T08:03:51.708Z,5.55
2022-07-29T08:06:19.320Z,5.63
2022-07-29T08:08:46.833Z,4.60
2022-07-29T08:11:14.612Z,5.43
2022-07-29T08:13:42.220Z,4.93
2022-07-29T08:16:14.099Z,9.00
2022-07-29T08:18:43.195Z,6.18
2022-07-29T08:21:11.030Z,5.17
2022-07-29T08:23:52.793Z,6.13
2022-07-29T08:26:25.470Z,5.88
2022-07-29T08:28:53.165Z,8.70
2022-07-29T08:31:21.034Z,6.55
2022-07-29T08:33:48.630Z,5.23
2022-07-29T08:36:16.381Z,4.97
2022-07-29T08:38:43.999Z,4.90
2022-07-29T08:41:11.684Z,6.38
2022-07-29T08:43:42.302Z,5.55
2022-07-29T08:46:09.884Z,4.87
2022-07-29T08:48:38.128Z,4.72
2022-07-29T08:51:08.453Z,4.60
2022-07-29T08:53:39.301Z,4.93
2022-07-29T08:56:07.856Z,6.40
2022-07-29T08:58:37.181Z,4.60
2022-07-29T09:01:07.696Z,8.02
2022-07-29T09:03:42.606Z,5.72
2022-07-29T09:06:10.348Z,8.45
2022-07-29T09:08:38.060Z,5.55
2022-07-29T09:11:08.881Z,5.30
2022-07-29T09:13:36.935Z,6.43
2022-07-29T09:16:09.060Z,6.43
2022-07-29T09:18:38.504Z,5.93
2022-07-29T09:21:26.544Z,6.80
2022-07-29T09:24:14.102Z,6.93
2022-07-29T09:26:43.704Z,5.72
2022-07-29T09:29:16.228Z,5.95
2022-07-29T09:31:46.947Z,5.78
2022-07-29T09:34:23.085Z,5.07
2022-07-29T09:36:52.744Z,5.97
2022-07-29T09:39:35.404Z,5.65
2022-07-29T09:42:06.434Z,5.88
2022-07-29T09:44:46.051Z,7.18
2022-07-29T09:47:14.260Z,4.93
2022-07-29T09:50:01.150Z,5.33
2022-07-29T09:52:31.730Z,15.88
2022-07-29T09:55:13.830Z,5.65
2022-07-29T09:57:47.643Z,6.93
2022-07-29T10:00:20.159Z,5.20
2022-07-29T10:02:48.791Z,5.60
2022-07-29T10:05:25.178Z,6.00
2022-07-29T10:07:57.681Z,6.88
2022-07-29T10:10:27.011Z,6.45
2022-07-29T10:13:03.053Z,5.47
2022-07-29T10:15:45.082Z,5.67
2022-07-29T10:18:14.819Z,6.03
2022-07-29T10:20:42.876Z,6.32
2022-07-29T10:23:11.188Z,6.82
2022-07-29T10:25:38.885Z,6.68
2022-07-29T10:28:07.853Z,6.63
2022-07-29T10:30:35.976Z,6.50
2022-07-29T10:33:19.907Z,8.00
2022-07-29T10:36:02.436Z,6.53
2022-07-29T10:38:48.420Z,6.50
2022-07-29T10:41:43.874Z,6.93
2022-07-29T10:44:19.445Z,6.40
2022-07-29T10:46:53.387Z,7.18
2022-07-29T10:52:19.424Z,6.38
2022-07-29T10:54:49.542Z,6.50
2022-07-29T10:57:25.985Z,5.93
2022-07-29T11:00:10.257Z,5.72
2022-07-29T11:02:41.740Z,5.70
2022-07-29T11:05:19.019Z,6.57
2022-07-29T11:08:20.092Z,5.07
2022-07-29T11:10:53.877Z,5.72
2022-07-29T11:13:49.274Z,6.18
2022-07-29T11:16:20.282Z,7.47
2022-07-29T11:19:26.329Z,7.20
2022-07-29T11:21:58.575Z,7.67
2022-07-29T11:24:30.286Z,5.47
2022-07-29T11:27:19.774Z,6.22
2022-07-29T11:29:56.204Z,8.13
2022-07-29T11:32:29.311Z,7.28
2022-07-29T11:35:38.525Z,5.57
2022-07-29T11:38:32.124Z,6.82
2022-07-29T11:41:24.373Z,7.18
2022-07-29T11:43:56.231Z,5.68
2022-07-29T11:46:54.086Z,6.25
2022-07-29T11:49:32.312Z,5.53
2022-07-29T11:52:04.916Z,5.97
2022-07-29T11:57:36.021Z,5.75
2022-07-29T12:00:09.508Z,6.03
2022-07-29T12:02:48.581Z,5.43
2022-07-29T12:05:23.951Z,7.72
2022-07-29T12:08:22.896Z,6.93
2022-07-29T12:10:52.168Z,6.10
2022-07-29T12:13:22.222Z,7.43
2022-07-29T12:16:00.125Z,8.00
2022-07-29T12:18:28.272Z,6.72
2022-07-29T12:21:03.226Z,7.30
2022-07-29T12:23:34.639Z,6.53
2022-07-29T12:26:10.602Z,6.03
2022-07-29T12:28:40.045Z,7.90
2022-07-29T12:31:14.270Z,8.07
2022-07-29T12:33:41.893Z,5.30
2022-07-29T12:36:17.122Z,5.80
2022-07-29T12:38:46.248Z,5.45
2022-07-29T12:41:14.358Z,7.90
2022-07-29T12:43:54.886Z,6.03
2022-07-29T12:46:22.523Z,6.10
2022-07-29T12:48:57.902Z,6.55
2022-07-29T12:51:40.266Z,6.10
2022-07-29T12:54:14.567Z,7.10
2022-07-29T12:56:45.358Z,9.18
2022-07-29T12:59:18.930Z,6.32
2022-07-29T13:01:51.146Z,5.90
2022-07-29T13:04:32.933Z,5.72
2022-07-29T13:07:07.251Z,6.13
2022-07-29T13:09:46.769Z,5.10
2022-07-29T13:12:15.898Z,6.03
2022-07-29T13:14:50.660Z,6.97
2022-07-29T13:17:32.762Z,7.30
2022-07-29T13:20:10.453Z,6.00
2022-07-29T13:22:37.946Z,5.05
2022-07-29T13:25:07.998Z,5.60
2022-07-29T13:27:38.449Z,5.15
2022-07-29T13:30:08.419Z,6.43
2022-07-29T13:32:37.577Z,5.67
2022-07-29T13:35:08.377Z,5.75
2022-07-29T13:37:39.704Z,5.50
2022-07-29T13:40:09.768Z,9.38
2022-07-29T13:42:38.894Z,9.23
2022-07-29T13:45:07.848Z,6.67
2022-07-29T13:47:35.382Z,8.40
2022-07-29T13:50:05.358Z,7.40
2022-07-29T13:52:34.777Z,6.70
2022-07-29T13:55:04.433Z,5.85
2022-07-29T13:57:31.956Z,9.20
2022-07-29T13:59:59.952Z,7.20
2022-07-29T14:02:27.514Z,8.93
2022-07-29T14:04:56.790Z,13.35
2022-07-29T14:07:24.671Z,14.18
2022-07-29T14:09:52.532Z,12.63
2022-07-29T14:12:20.344Z,10.57
2022-07-29T14:14:48.125Z,9.27
2022-07-29T14:17:16.759Z,9.13
2022-07-29T14:19:44.443Z,7.85
2022-07-29T14:22:12.080Z,6.40
2022-07-29T14:24:40.613Z,10.10
2022-07-29T14:27:09.257Z,6.80
2022-07-29T14:29:38.732Z,6.68
2022-07-29T14:32:08.509Z,7.03
2022-07-29T14:34:37.908Z,34.30
2022-07-29T14:37:07.030Z,41.05
2022-07-29T14:39:42.341Z,35.45
2022-07-29T14:42:12.787Z,24.50
2022-07-29T14:44:42.677Z,20.45
2022-07-29T14:47:10.594Z,27.00
2022-07-29T14:49:38.231Z,18.27
2022-07-29T14:52:06.144Z,16.48
2022-07-29T14:54:33.700Z,15.18
2022-07-29T14:57:01.346Z,13.57
2022-07-29T14:59:29.998Z,20.40
2022-07-29T15:01:57.646Z,17.52
2022-07-29T15:04:28.483Z,9.70
2022-07-29T15:06:56.188Z,8.02
2022-07-29T15:09:24.239Z,12.23
2022-07-29T15:11:52.547Z,10.90
2022-07-29T15:14:20.063Z,10.30
2022-07-29T15:16:48.062Z,10.48
2022-07-29T15:19:16.144Z,11.45
2022-07-29T15:21:59.281Z,6.78
2022-07-29T15:24:27.581Z,7.83
2022-07-29T15:26:55.414Z,7.70
2022-07-29T15:29:23.079Z,7.47
2022-07-29T15:31:50.853Z,8.27
2022-07-29T15:34:18.527Z,7.97
2022-07-29T15:36:53.872Z,11.23
2022-07-29T15:39:23.064Z,7.50
2022-07-29T15:41:51.519Z,11.10
2022-07-29T15:44:20.870Z,8.90
2022-07-29T15:47:05.167Z,10.48
2022-07-29T15:49:48.309Z,8.90
2022-07-29T15:52:25.436Z,8.57
2022-07-29T15:54:57.990Z,7.53
2022-07-29T15:57:26.093Z,10.48
2022-07-29T15:59:53.734Z,10.00
2022-07-29T16:02:21.573Z,11.40
2022-07-29T16:04:49.401Z,10.43
2022-07-29T16:07:17.131Z,13.55
2022-07-29T16:09:52.839Z,7.63
2022-07-29T16:12:21.546Z,7.88
2022-07-29T16:14:51.371Z,10.07
2022-07-29T16:17:19.623Z,11.13
2022-07-29T16:19:47.545Z,8.23
2022-07-29T16:22:15.312Z,11.27
2022-07-29T16:24:42.974Z,11.15
2022-07-29T16:27:10.476Z,7.27
2022-07-29T16:29:38.123Z,8.07
2022-07-29T16:32:07.082Z,9.32
2022-07-29T16:34:34.648Z,9.73
2022-07-29T16:37:02.495Z,6.63
2022-07-29T16:39:30.316Z,5.73
2022-07-29T16:42:00.471Z,5.15
2022-07-29T16:44:30.774Z,7.18
2022-07-29T16:46:59.962Z,7.03
2022-07-29T16:49:28.746Z,5.82
2022-07-29T16:51:56.349Z,5.83
2022-07-29T16:54:23.966Z,6.72
2022-07-29T16:56:51.493Z,7.47
2022-07-29T16:59:18.953Z,7.30
2022-07-29T17:01:46.622Z,7.38
2022-07-29T17:04:15.303Z,6.83
2022-07-29T17:06:43.155Z,8.85
2022-07-29T17:09:15.266Z,6.22
2022-07-29T17:11:52.910Z,7.97
2022-07-29T17:14:25.312Z,5.95
2022-07-29T17:17:00.406Z,11.67
2022-07-29T17:19:30.627Z,6.55
2022-07-29T17:22:06.420Z,5.97
2022-07-29T17:24:38.183Z,7.25
2022-07-29T17:27:06.658Z,8.30
2022-07-29T17:29:37.870Z,5.80
2022-07-29T17:32:07.811Z,5.60
2022-07-29T17:34:40.920Z,9.35
2022-07-29T17:37:10.911Z,9.73
2022-07-29T17:39:41.063Z,11.43
2022-07-29T17:42:10.277Z,8.20
2022-07-29T17:44:38.799Z,8.25
2022-07-29T17:47:15.632Z,7.15
2022-07-29T17:49:44.679Z,8.05
2022-07-29T17:52:12.325Z,7.47
2022-07-29T17:54:39.839Z,5.40
2022-07-29T17:57:07.422Z,8.60
2022-07-29T17:59:34.989Z,5.10
2022-07-29T18:02:02.863Z,7.03
2022-07-29T18:04:31.649Z,7.43
2022-07-29T18:06:59.503Z,4.40
2022-07-29T18:09:27.289Z,6.78
2022-07-29T18:11:54.866Z,7.35
2022-07-29T18:14:22.407Z,7.07
2022-07-29T18:16:49.948Z,6.38
2022-07-29T18:19:17.601Z,5.67
2022-07-29T18:21:54.156Z,7.13
2022-07-29T18:24:27.913Z,7.25
2022-07-29T18:26:56.725Z,7.25
2022-07-29T18:29:24.554Z,6.22
2022-07-29T18:31:52.120Z,7.80
2022-07-29T18:34:19.663Z,6.97
2022-07-29T18:36:47.248Z,5.72
2022-07-29T18:39:20.554Z,6.47
2022-07-29T18:41:51.244Z,6.82
2022-07-29T18:44:22.692Z,7.43
2022-07-29T18:46:52.178Z,7.10
2022-07-29T18:49:20.067Z,7.95
2022-07-29T18:51:48.253Z,5.82
2022-07-29T18:54:17.635Z,7.88
2022-07-29T18:56:46.617Z,6.13
2022-07-29T18:59:19.967Z,5.22
2022-07-29T19:01:48.756Z,7.68
2022-07-29T19:04:17.575Z,6.90
2022-07-29T19:06:45.387Z,6.45
2022-07-29T19:09:12.939Z,5.93
2022-07-29T19:11:40.944Z,6.40
2022-07-29T19:14:08.543Z,6.47
2022-07-29T19:16:36.185Z,7.13
2022-07-29T19:19:04.051Z,6.05
2022-07-29T19:21:31.669Z,7.07
2022-07-29T19:24:02.422Z,6.40
2022-07-29T19:26:36.810Z,7.05
2022-07-29T19:29:04.796Z,8.10
2022-07-29T19:31:32.518Z,6.90
2022-07-29T19:34:00.098Z,7.07
2022-07-29T19:36:27.670Z,6.43
2022-07-29T19:38:55.283Z,6.78
2022-07-29T19:41:22.876Z,7.20
2022-07-29T19:43:53.074Z,7.95
2022-07-29T19:46:22.186Z,8.40
2022-07-29T19:48:50.534Z,6.18
2022-07-29T19:51:18.262Z,7.22
2022-07-29T19:53:45.777Z,6.30
2022-07-29T19:56:13.558Z,6.13
2022-07-29T19:58:44.208Z,8.87
2022-07-29T20:01:12.899Z,7.88
2022-07-29T20:03:40.551Z,7.22
2022-07-29T20:06:08.756Z,7.72
2022-07-29T20:08:36.415Z,7.10
2022-07-29T20:11:04.104Z,6.50
2022-07-29T20:13:33.410Z,9.00
2022-07-29T20:16:02.276Z,8.23
2022-07-29T20:18:29.875Z,6.75
2022-07-29T20:20:57.803Z,7.28
2022-07-29T20:23:25.346Z,8.83
2022-07-29T20:25:54.049Z,9.25
2022-07-29T20:28:22.697Z,13.55
2022-07-29T20:30:50.275Z,12.73
2022-07-29T20:33:18.406Z,10.50
2022-07-29T20:35:47.502Z,10.90
2022-07-29T20:38:18.155Z,9.63
2022-07-29T20:40:46.598Z,12.57
2022-07-29T20:43:14.806Z,19.48
2022-07-29T20:45:42.486Z,12.77
2022-07-29T20:48:10.791Z,14.70
2022-07-29T20:50:38.326Z,16.65
2022-07-29T20:53:05.921Z,14.45
2022-07-29T20:55:33.587Z,14.00
2022-07-29T20:58:01.224Z,17.33
2022-07-29T21:00:29.075Z,13.60
2022-07-29T21:02:56.680Z,19.55
2022-07-29T21:05:24.585Z,15.88
2022-07-29T21:07:56.521Z,10.02
2022-07-29T21:10:26.023Z,9.52
2022-07-29T21:12:53.511Z,8.17
2022-07-29T21:15:22.044Z,9.63
2022-07-29T21:17:49.568Z,10.93
2022-07-29T21:20:19.136Z,13.10
2022-07-29T21:22:46.629Z,14.50
2022-07-29T21:25:14.310Z,15.10
2022-07-29T21:28:00.059Z,12.10
2022-07-29T21:30:27.612Z,12.75
2022-07-29T21:32:55.108Z,17.48
2022-07-29T21:35:30.327Z,14.60
2022-07-29T21:38:10.551Z,21.37
2022-07-29T21:40:38.376Z,14.68
2022-07-29T21:43:08.415Z,13.55
2022-07-29T21:45:37.287Z,18.02
2022-07-29T21:48:06.699Z,19.42
2022-07-29T21:50:35.775Z,24.57
2022-07-29T21:53:03.379Z,36.75
2022-07-29T21:55:32.033Z,40.20
2022-07-29T21:58:00.076Z,32.85
2022-07-29T22:00:28.747Z,29.98
2022-07-29T22:02:57.622Z,23.47
2022-07-29T22:05:25.130Z,26.85
2022-07-29T22:07:54.515Z,28.48
2022-07-29T22:10:28.994Z,34.50
2022-07-29T22:12:58.316Z,37.47
2022-07-29T22:15:26.409Z,28.43
2022-07-29T22:17:54.190Z,27.77
2022-07-29T22:20:21.953Z,26.48
2022-07-29T22:22:49.445Z,21.92
2022-07-29T22:25:17.973Z,23.83
2022-07-29T22:27:45.518Z,20.93
2022-07-29T22:30:13.678Z,15.32
2022-07-29T22:32:41.187Z,16.70
2022-07-29T22:35:09.099Z,10.98
2022-07-29T22:37:36.703Z,11.80
2022-07-29T22:40:04.778Z,10.17
2022-07-29T22:42:32.633Z,9.05
2022-07-29T22:45:00.154Z,7.50
2022-07-29T22:47:46.480Z,8.63
2022-07-29T22:50:15.249Z,8.57
2022-07-29T22:52:42.776Z,7.63
2022-07-29T22:55:10.928Z,7.60
2022-07-29T22:57:38.497Z,8.95
2022-07-29T23:00:07.053Z,10.18
2022-07-29T23:02:36.669Z,11.38
2022-07-29T23:05:04.913Z,11.23
2022-07-29T23:07:34.234Z,18.98
2022-07-29T23:10:02.160Z,24.13
2022-07-29T23:12:31.362Z,39.17
2022-07-29T23:14:58.928Z,52.40
2022-07-29T23:17:26.489Z,40.57
2022-07-29T23:19:54.029Z,30.52
2022-07-29T23:22:21.551Z,23.65
2022-07-29T23:24:49.016Z,14.63
2022-07-29T23:27:16.503Z,12.05
2022-07-29T23:29:44.034Z,8.60
2022-07-29T23:32:11.537Z,8.43
2022-07-29T23:34:39.988Z,8.07
2022-07-29T23:37:07.684Z,8.38
2022-07-29T23:39:35.202Z,7.70
2022-07-29T23:42:03.008Z,9.00
2022-07-29T23:44:30.501Z,7.65
2022-07-29T23:46:58.210Z,6.85
2022-07-29T23:49:26.109Z,7.25
2022-07-29T23:51:53.655Z,7.47
2022-07-29T23:54:21.180Z,8.93
2022-07-29T23:56:48.659Z,7.22
2022-07-29T23:59:16.172Z,6.32
